Time;durP1;ratioP1;P1;durP2;ratioP2;P2;SDS_P1;SDS_P2;PMS_P1;PMS_P2;Temp;Humidity;BMP_temperature;BMP_pressure;BME280_temperature;BME280_humidity;BME280_pressure;Samples;Min_cycle;Max_cycle;Signal;HPM_P1;HPM_P2
2023/08/29 00:01:31;;;;;;;12.27;6.55;;;;;;;;;;5074504;28;20020;-83
2023/08/29 00:03:58;;;;;;;14.52;6.70;;;;;;;;;;5092041;28;20046;-85
2023/08/29 00:06:24;;;;;;;11.75;6.82;;;;;;;;;;5094247;28;20374;-84
2023/08/29 00:08:50;;;;;;;20.25;6.43;;;;;;;;;;5089261;28;20017;-84
2023/08/29 00:11:19;;;;;;;10.90;6.18;;;;;;;;;;5074316;28;20031;-84
2023/08/29 00:13:45;;;;;;;21.85;6.07;;;;;;;;;;5076104;28;20105;-84
2023/08/29 00:16:16;;;;;;;15.98;6.30;;;;;;;;;;5079559;28;20137;-84
2023/08/29 00:18:42;;;;;;;11.32;6.00;;;;;;;;;;5092556;28;20515;-84
2023/08/29 00:21:08;;;;;;;14.98;6.07;;;;;;;;;;5075197;28;20454;-83
2023/08/29 00:23:35;;;;;;;13.88;6.60;;;;;;;;;;5094097;28;20073;-83
2023/08/29 00:26:02;;;;;;;17.63;6.38;;;;;;;;;;5093999;28;20024;-84
2023/08/29 00:28:28;;;;;;;14.43;5.63;;;;;;;;;;5092660;28;20028;-82
2023/08/29 00:30:54;;;;;;;13.32;6.32;;;;;;;;;;5092720;28;20034;-83
2023/08/29 00:33:20;;;;;;;11.40;5.97;;;;;;;;;;5093657;28;20047;-83
2023/08/29 00:35:48;;;;;;;12.15;5.63;;;;;;;;;;5092650;28;20029;-84
2023/08/29 00:38:14;;;;;;;15.30;5.53;;;;;;;;;;5092548;28;20031;-84
2023/08/29 00:40:40;;;;;;;10.75;5.43;;;;;;;;;;5092502;28;20020;-84
2023/08/29 00:43:06;;;;;;;14.25;5.93;;;;;;;;;;5092365;28;20032;-83
2023/08/29 00:45:34;;;;;;;14.85;5.93;;;;;;;;;;5092481;28;20032;-83
2023/08/29 00:48:01;;;;;;;13.15;6.00;;;;;;;;;;5092523;28;20107;-85
2023/08/29 00:50:27;;;;;;;17.73;5.82;;;;;;;;;;5092557;28;20024;-84
2023/08/29 00:52:54;;;;;;;11.55;5.65;;;;;;;;;;5088279;28;20021;-85
2023/08/29 00:55:21;;;;;;;14.70;6.60;;;;;;;;;;5074175;28;20028;-85
2023/08/29 00:57:48;;;;;;;17.17;6.00;;;;;;;;;;5074332;28;20025;-84
2023/08/29 01:00:15;;;;;;;14.98;6.32;;;;;;;;;;5073601;28;20024;-85
2023/08/29 01:02:41;;;;;;;18.13;5.82;;;;;;;;;;5074982;28;20063;-84
2023/08/29 01:05:07;;;;;;;19.38;5.88;;;;;;;;;;5072791;28;20039;-85
2023/08/29 01:07:33;;;;;;;14.02;5.82;;;;;;;;;;5076550;28;20462;-85
2023/08/29 01:09:59;;;;;;;20.42;6.13;;;;;;;;;;5075437;28;20386;-84
2023/08/29 01:12:48;;;;;;;13.30;6.32;;;26.30;54.70;;;;;;5071649;28;20085;-86
2023/08/29 01:15:21;;;;;;;14.55;6.63;;;26.20;55.60;;;;;;5072070;28;20036;-84
2023/08/29 01:18:03;;;;;;;19.65;5.75;;;26.10;56.20;;;;;;5092917;28;20056;-85
2023/08/29 01:20:33;;;;;;;;;;;26.10;55.80;;;;;;5082079;28;20027;-85
2023/08/29 01:23:11;;;;;;;14.07;6.80;;;26.00;56.30;;;;;;5094234;28;19911;-86
2023/08/29 01:26:05;;;;;;;16.98;6.32;;;26.00;56.50;;;;;;5076589;28;20025;-84
2023/08/29 01:28:32;;;;;;;16.85;6.70;;;26.00;56.90;;;;;;5089660;28;20108;-84
2023/08/29 01:31:03;;;;;;;33.67;7.25;;;25.90;57.30;;;;;;5076296;28;20034;-85
2023/08/29 01:33:29;;;;;;;19.80;8.02;;;25.90;56.90;;;;;;5081804;28;20105;-85
2023/08/29 01:35:55;;;;;;;14.45;6.07;;;25.90;57.20;;;;;;5091900;28;20037;-83
2023/08/29 01:38:21;;;;;;;18.52;6.32;;;26.00;57.60;;;;;;5079640;28;20119;-85
2023/08/29 01:40:46;;;;;;;11.40;6.32;;;25.90;57.60;;;;;;5077265;28;20032;-85
2023/08/29 01:43:12;;;;;;;16.55;6.88;;;25.80;58.30;;;;;;5080894;28;20035;-83
2023/08/29 01:45:38;;;;;;;16.17;7.20;;;25.80;58.50;;;;;;5079205;28;20032;-83
2023/08/29 01:48:04;;;;;;;17.27;7.00;;;25.80;58.70;;;;;;5076437;28;20073;-85
2023/08/29 01:50:31;;;;;;;14.18;6.00;;;25.70;57.90;;;;;;5075799;28;20052;-84
2023/08/29 01:52:59;;;;;;;12.52;6.20;;;25.70;58.50;;;;;;5080661;28;20029;-85
2023/08/29 01:55:26;;;;;;;10.05;6.82;;;25.70;59.10;;;;;;5076883;28;20055;-85
2023/08/29 01:57:53;;;;;;;18.45;6.90;;;25.70;59.10;;;;;;5092278;28;20040;-84
2023/08/29 02:00:19;;;;;;;14.25;6.22;;;25.60;59.50;;;;;;5075760;28;20048;-83
2023/08/29 02:02:45;;;;;;;18.45;7.28;;;25.60;59.60;;;;;;5074792;28;20094;-85
2023/08/29 02:05:11;;;;;;;10.52;6.55;;;25.50;59.70;;;;;;5079784;28;20032;-86
2023/08/29 02:07:36;;;;;;;16.98;7.47;;;25.50;60.20;;;;;;5094948;28;20024;-84
2023/08/29 02:10:02;;;;;;;19.23;7.15;;;25.50;60.50;;;;;;5081272;28;20039;-86
2023/08/29 02:12:28;;;;;;;14.95;7.22;;;25.50;60.30;;;;;;5083541;28;20428;-85
2023/08/29 02:14:54;;;;;;;14.60;7.20;;;25.50;61.00;;;;;;5091542;28;20037;-84
2023/08/29 02:17:19;;;;;;;17.92;7.82;;;25.50;61.40;;;;;;5086174;28;20024;-83
2023/08/29 02:19:45;;;;;;;16.02;7.57;;;25.50;60.50;;;;;;5096623;28;20112;-86
2023/08/29 02:22:12;;;;;;;15.13;7.88;;;25.50;61.30;;;;;;5094878;28;20056;-85
2023/08/29 02:24:38;;;;;;;16.58;6.90;;;25.50;61.70;;;;;;5087605;28;20032;-84
2023/08/29 02:27:04;;;;;;;10.93;6.50;;;25.60;61.80;;;;;;5073465;28;20044;-84
2023/08/29 02:29:30;;;;;;;20.38;6.53;;;25.50;61.70;;;;;;5076832;28;20028;-84
2023/08/29 02:31:55;;;;;;;18.17;6.65;;;25.60;61.90;;;;;;5074476;28;20024;-87
2023/08/29 02:34:21;;;;;;;17.58;7.75;;;25.60;61.70;;;;;;5079984;28;20056;-84
2023/08/29 02:36:47;;;;;;;19.30;7.07;;;25.60;62.20;;;;;;5078685;28;20109;-84
2023/08/29 02:39:13;;;;;;;14.30;6.72;;;25.60;61.60;;;;;;5076157;28;20454;-84
2023/08/29 02:41:39;;;;;;;23.65;7.07;;;25.60;61.20;;;;;;5074777;28;20181;-83
2023/08/29 02:44:04;;;;;;;16.40;7.10;;;25.70;61.40;;;;;;5074667;28;20039;-85
2023/08/29 02:46:30;;;;;;;23.42;6.75;;;25.60;60.60;;;;;;5074829;28;20079;-85
2023/08/29 02:48:56;;;;;;;19.60;6.80;;;25.60;60.80;;;;;;5074723;28;20024;-84
2023/08/29 02:51:22;;;;;;;15.40;6.35;;;25.60;61.40;;;;;;5081111;28;20036;-83
2023/08/29 02:53:47;;;;;;;18.38;7.32;;;25.50;60.80;;;;;;5078036;28;20028;-83
2023/08/29 02:56:13;;;;;;;18.95;6.00;;;25.50;61.20;;;;;;5069569;28;20028;-83
2023/08/29 02:58:39;;;;;;;18.20;6.85;;;25.60;61.90;;;;;;5079498;28;20031;-89
2023/08/29 03:01:09;;;;;;;25.13;6.95;;;25.50;61.00;;;;;;5076337;28;20024;-85
2023/08/29 03:03:35;;;;;;;16.75;5.95;;;25.50;61.10;;;;;;5074606;28;20382;-84
2023/08/29 03:06:01;;;;;;;12.63;5.93;;;25.50;61.20;;;;;;5075118;28;20034;-86
2023/08/29 03:08:27;;;;;;;14.80;6.25;;;25.40;61.40;;;;;;5079913;28;20416;-86
2023/08/29 03:10:53;;;;;;;12.25;6.22;;;25.50;62.10;;;;;;5072843;28;20453;-88
2023/08/29 03:13:19;;;;;;;20.80;6.43;;;25.40;62.20;;;;;;5074681;28;20425;-85
2023/08/29 03:15:48;;;;;;;30.83;7.13;;;25.40;62.70;;;;;;5075376;28;20108;-86
2023/08/29 03:18:14;;;;;;;16.45;6.82;;;25.40;62.90;;;;;;5075615;28;20027;-84
2023/08/29 03:20:41;;;;;;;20.13;7.32;;;25.40;63.50;;;;;;5073925;28;20378;-83
2023/08/29 03:23:07;;;;;;;21.15;7.15;;;25.40;63.70;;;;;;5072992;28;20030;-83
2023/08/29 03:25:33;;;;;;;18.83;5.78;;;25.30;63.70;;;;;;5079053;28;20043;-86
2023/08/29 03:27:58;;;;;;;21.85;6.43;;;25.20;64.30;;;;;;5074533;28;20032;-86
2023/08/29 03:30:29;;;;;;;14.43;6.25;;;25.20;65.00;;;;;;5079845;28;20033;-85
2023/08/29 03:32:54;;;;;;;17.33;6.80;;;25.10;65.60;;;;;;5073082;28;20077;-87
2023/08/29 03:35:20;;;;;;;21.27;7.32;;;25.10;67.50;;;;;;5073855;28;20029;-84
2023/08/29 03:37:46;;;;;;;20.05;7.30;;;25.00;69.80;;;;;;5077244;28;20039;-86
2023/08/29 03:40:13;;;;;;;18.42;6.65;;;24.90;71.30;;;;;;5074931;28;20458;-85
2023/08/29 03:42:42;;;;;;;18.67;7.75;;;24.90;74.60;;;;;;5072886;28;20029;-88
2023/08/29 03:45:08;;;;;;;18.55;7.00;;;24.80;78.00;;;;;;5082439;28;20386;-85
2023/08/29 03:47:36;;;;;;;17.65;7.47;;;24.70;75.50;;;;;;5073982;28;20021;-86
2023/08/29 03:50:02;;;;;;;17.02;7.45;;;24.70;76.20;;;;;;5090230;28;20421;-85
2023/08/29 03:52:28;;;;;;;19.67;7.22;;;24.60;78.60;;;;;;5074148;28;20371;-87
2023/08/29 03:54:57;;;;;;;21.10;7.13;;;24.70;79.60;;;;;;5074903;28;20039;-85
2023/08/29 03:57:24;;;;;;;16.50;7.05;;;24.60;80.20;;;;;;5090272;28;20369;-88
2023/08/29 03:59:50;;;;;;;20.15;8.32;;;24.60;82.00;;;;;;5074963;28;20032;-86
2023/08/29 04:02:15;;;;;;;19.02;8.20;;;24.60;85.90;;;;;;5093007;28;20401;-87
2023/08/29 04:04:44;;;;;;;19.27;7.55;;;24.60;90.50;;;;;;5093240;28;20532;-85
2023/08/29 04:07:12;;;;;;;20.98;8.60;;;24.60;94.00;;;;;;5093125;28;20032;-86
2023/08/29 04:09:41;;;;;;;13.18;7.63;;;24.50;96.80;;;;;;5082476;28;20038;-88
2023/08/29 04:35:36;;;;;;;16.42;8.38;;;23.90;99.90;;;;;;5012119;28;20136;-86
2023/08/29 04:38:02;;;;;;;21.55;9.38;;;23.80;99.90;;;;;;5033849;28;20042;-84
2023/08/29 04:40:28;;;;;;;20.70;7.93;;;23.70;99.90;;;;;;4999169;28;20061;-88
2023/08/29 04:42:54;;;;;;;15.35;7.97;;;23.50;99.90;;;;;;5011553;28;20046;-84
2023/08/29 04:45:20;;;;;;;14.10;7.47;;;23.40;99.90;;;;;;5015701;28;20099;-85
2023/08/29 04:47:45;;;;;;;29.10;10.25;;;23.40;99.90;;;;;;4998304;28;20120;-84
2023/08/29 04:50:11;;;;;;;18.60;8.18;;;23.30;99.90;;;;;;4996838;28;20037;-87
2023/08/29 04:52:37;;;;;;;18.67;8.60;;;23.30;99.90;;;;;;4998290;28;20049;-85
2023/08/29 04:55:07;;;;;;;19.10;7.53;;;23.20;99.90;;;;;;5003847;28;20122;-86
2023/08/29 04:57:33;;;;;;;18.73;8.30;;;23.20;99.90;;;;;;4998069;28;20060;-87
2023/08/29 05:00:00;;;;;;;15.23;6.90;;;23.20;99.90;;;;;;5000940;28;20096;-87
2023/08/29 05:02:26;;;;;;;18.88;7.75;;;23.20;99.90;;;;;;4997949;28;20550;-85
2023/08/29 05:04:52;;;;;;;16.45;7.60;;;23.20;99.90;;;;;;5004651;28;20031;-85
2023/08/29 05:07:19;;;;;;;16.70;8.75;;;23.20;99.90;;;;;;5000510;28;20037;-87
2023/08/29 05:09:46;;;;;;;16.35;9.20;;;23.30;99.90;;;;;;5065910;28;20032;-86
2023/08/29 05:12:12;;;;;;;20.70;9.20;;;23.20;99.90;;;;;;5075635;28;20115;-87
2023/08/29 05:14:38;;;;;;;13.52;8.23;;;23.20;99.90;;;;;;5081185;28;20442;-86
2023/08/29 05:17:05;;;;;;;18.02;9.02;;;23.20;99.90;;;;;;5076964;28;20032;-85
2023/08/29 05:19:30;;;;;;;15.18;7.90;;;23.20;99.90;;;;;;5082591;28;20157;-85
2023/08/29 05:21:56;;;;;;;15.65;6.80;;;23.20;99.90;;;;;;5077300;28;20064;-86
2023/08/29 05:24:22;;;;;;;17.42;7.07;;;23.20;99.90;;;;;;5076693;28;20028;-84
2023/08/29 05:26:48;;;;;;;15.07;6.60;;;23.20;99.90;;;;;;5078669;28;20032;-84
2023/08/29 05:29:14;;;;;;;18.15;6.35;;;23.10;99.90;;;;;;5076390;28;20481;-86
2023/08/29 05:31:40;;;;;;;11.68;6.10;;;23.10;99.90;;;;;;5077909;28;20028;-88
2023/08/29 05:34:05;;;;;;;14.63;6.25;;;23.20;99.90;;;;;;5075464;28;20143;-87
2023/08/29 05:36:31;;;;;;;12.65;5.75;;;23.20;99.90;;;;;;5076465;28;20029;-87
2023/08/29 11:19:22;;;;;;;5.38;2.20;;;;;;;;;;5111390;27;20316;-85
2023/08/29 11:21:49;;;;;;;5.22;2.28;;;;;;;;;;5091641;28;20484;-84
2023/08/29 11:24:15;;;;;;;4.70;2.17;;;;;;;;;;5105850;28;20023;-85
2023/08/29 11:26:43;;;;;;;10.55;2.45;;;;;;;;;;5095523;28;20518;-84
2023/08/29 11:29:10;;;;;;;4.43;2.22;;;;;;;;;;5091414;28;20032;-83
2023/08/29 11:31:43;;;;;;;6.07;2.45;;;;;;;;;;5098373;28;20016;-85
2023/08/29 11:34:13;;;;;;;7.03;2.58;;;;;;;;;;5102772;28;20023;-86
2023/08/29 11:36:40;;;;;;;4.90;2.17;;;;;;;;;;5089765;28;20502;-83
2023/08/29 11:39:07;;;;;;;5.10;2.00;;;;;;;;;;5103089;28;20051;-83
2023/08/29 11:41:34;;;;;;;6.35;1.77;;;;;;;;;;5108803;28;20030;-86
2023/08/29 11:44:02;;;;;;;9.55;2.25;;;;;;;;;;5091188;28;20012;-84
2023/08/29 11:46:34;;;;;;;12.77;2.58;;;;;;;;;;5103239;28;20048;-84
2023/08/29 11:49:00;;;;;;;9.05;2.75;;;;;;;;;;5097043;28;20764;-85
2023/08/29 11:51:27;;;;;;;6.85;2.88;;;;;;;;;;5095718;28;20019;-85
2023/08/29 11:53:53;;;;;;;12.07;2.67;;;;;;;;;;5091319;28;20078;-84
2023/08/29 11:56:19;;;;;;;5.20;2.40;;;;;;;;;;5101997;28;20027;-85
2023/08/29 11:58:45;;;;;;;4.65;2.30;;;;;;;;;;5104273;28;20040;-86
2023/08/29 12:01:12;;;;;;;9.27;2.90;;;;;;;;;;5093801;28;20028;-84
2023/08/29 12:08:33;;;;;;;5.38;2.65;;;;;;;;;;5110136;27;20878;-86
2023/08/29 12:10:59;;;;;;;7.13;3.15;;;;;;;;;;5085879;28;20036;-88
2023/08/29 12:13:26;;;;;;;6.75;3.28;;;;;;;;;;5071905;28;20039;-85
2023/08/29 12:15:52;;;;;;;11.43;3.40;;;;;;;;;;5071260;28;20032;-88
2023/08/29 12:18:24;;;;;;;7.15;3.83;;;;;;;;;;5070880;28;20215;-89
2023/08/29 12:20:51;;;;;;;8.10;2.97;;;;;;;;;;5071691;28;20178;-88
2023/08/29 12:23:28;;;;;;;7.68;3.58;;;;;;;;;;5071230;28;20020;-86
2023/08/29 12:25:56;;;;;;;12.93;3.45;;;;;;;;;;5071571;28;20040;-89
2023/08/29 12:28:25;;;;;;;10.98;3.90;;;;;;;;;;5071700;28;20028;-87
2023/08/29 12:30:52;;;;;;;7.82;3.92;;;;;;;;;;5071307;28;20040;-87
2023/08/29 12:33:19;;;;;;;8.63;3.58;;;;;;;;;;5071650;28;20453;-87
2023/08/29 12:35:45;;;;;;;7.90;3.92;;;;;;;;;;5071214;28;20028;-86
2023/08/29 12:38:11;;;;;;;7.00;3.55;;;;;;;;;;5071285;28;20028;-87
2023/08/29 12:40:40;;;;;;;8.23;3.90;;;;;;;;;;5071554;28;20021;-88
2023/08/29 12:43:09;;;;;;;9.18;3.63;;;;;;;;;;5108001;28;20028;-88
2023/08/29 12:45:36;;;;;;;8.07;4.15;;;;;;;;;;5109690;28;20453;-87
2023/08/29 12:48:05;;;;;;;6.97;4.15;;;;;;;;;;5109304;28;20027;-88
2023/08/29 12:50:31;;;;;;;7.30;4.50;;;;;;;;;;5126588;28;20031;-89
2023/08/29 12:52:58;;;;;;;9.77;4.30;;;;;;;;;;5126668;28;20012;-89
2023/08/29 12:55:25;;;;;;;11.80;4.28;;;;;;;;;;5126801;28;20024;-88
2023/08/29 12:57:51;;;;;;;13.68;4.03;;;;;;;;;;5125889;28;20154;-87
2023/08/29 13:00:18;;;;;;;8.52;4.10;;;;;;;;;;5108633;28;20531;-86
2023/08/29 13:02:47;;;;;;;10.32;4.95;;;;;;;;;;5125251;28;20012;-88
2023/08/29 13:05:19;;;;;;;7.03;3.85;;;;;;;;;;5107420;28;20478;-87
2023/08/29 13:07:46;;;;;;;13.15;4.53;;;;;;;;;;5108770;28;20071;-87
2023/08/29 13:10:13;;;;;;;7.20;3.80;;;;;;;;;;5107320;28;20042;-84
2023/08/29 13:12:40;;;;;;;9.93;4.43;;;;;;;;;;5108283;28;20019;-86
2023/08/29 13:15:10;;;;;;;7.75;3.83;;;;;;;;;;5107513;28;20028;-88
2023/08/29 13:17:37;;;;;;;13.02;4.30;;;;;;;;;;5114701;28;20020;-86
2023/08/29 13:20:03;;;;;;;12.18;4.43;;;;;;;;;;5094047;28;20073;-87
2023/08/29 13:22:29;;;;;;;11.80;4.20;;;;;;;;;;5113083;28;20027;-85
2023/08/29 13:24:55;;;;;;;10.02;4.80;;;;;;;;;;5111552;28;20016;-85
2023/08/29 13:27:21;;;;;;;7.97;4.32;;;;;;;;;;5094440;28;20020;-86
2023/08/29 13:29:48;;;;;;;8.30;4.97;;;;;;;;;;5094801;28;20049;-86
2023/08/29 13:32:16;;;;;;;8.80;4.20;;;;;;;;;;5094785;28;20480;-87
2023/08/29 13:34:42;;;;;;;14.65;5.07;;;;;;;;;;5095182;28;20016;-86
2023/08/29 13:37:09;;;;;;;11.48;4.82;;;;;;;;;;5095281;28;20043;-86
2023/08/29 13:41:07;;;;;;;8.00;2.60;;;;;;;;;;5104797;27;20739;-78
2023/08/29 13:44:18;;;;;;;8.77;2.80;;;;;;;;;;5110914;27;20455;-79
2023/08/29 13:48:59;;;;;;;11.13;3.28;;;;;;;;;;5094802;27;20352;-81
2023/08/29 13:51:24;;;;;;;8.93;2.25;;;25.10;71.80;;;;;;5088644;28;20123;-80
2023/08/29 13:56:00;;;;;;;6.82;3.00;;;23.90;84.70;;;;;;5165172;27;20868;-82
2023/08/29 13:58:25;;;;;;;7.95;3.10;;;23.70;98.00;;;;;;5130092;27;20019;-82
2023/08/29 14:00:51;;;;;;;7.18;2.97;;;23.70;91.00;;;;;;5129782;28;20023;-83
2023/08/29 14:03:17;;;;;;;8.00;3.08;;;23.20;99.90;;;;;;5132182;27;20465;-83
2023/08/29 14:05:46;;;;;;;15.90;3.95;;;23.00;99.90;;;;;;5130651;27;20401;-86
2023/08/29 14:34:24;;;;;;;9.25;5.13;;;21.30;99.90;;;;;;5132194;27;20391;-86
2023/08/29 14:36:49;;;;;;;11.80;5.72;;;21.30;99.90;;;;;;5113738;28;20443;-84
2023/08/29 14:39:16;;;;;;;9.57;4.70;;;21.20;99.90;;;;;;5113914;28;20032;-84
2023/08/29 14:41:42;;;;;;;13.15;6.13;;;21.20;99.90;;;;;;5113976;28;20055;-84
2023/08/29 14:44:08;;;;;;;10.10;4.68;;;21.00;99.90;;;;;;5113517;28;20027;-85
2023/08/29 14:46:34;;;;;;;7.38;4.28;;;21.00;99.90;;;;;;5131844;28;20470;-87
2023/08/29 14:49:00;;;;;;;11.23;4.18;;;21.00;99.90;;;;;;5113330;28;20024;-86
2023/08/29 14:51:26;;;;;;;9.52;4.35;;;21.10;99.90;;;;;;5113887;28;20027;-84
2023/08/29 14:53:51;;;;;;;11.57;4.63;;;21.20;99.90;;;;;;5113506;28;20031;-85
2023/08/29 14:56:17;;;;;;;5.93;3.47;;;21.40;99.90;;;;;;5113208;28;20035;-86
2023/08/29 14:58:44;;;;;;;5.95;3.40;;;21.60;99.90;;;;;;5113399;28;20024;-87
2023/08/29 15:01:10;;;;;;;7.53;3.60;;;21.70;99.90;;;;;;5113450;28;20042;-88
2023/08/29 15:03:36;;;;;;;9.30;3.83;;;21.70;99.90;;;;;;5112843;28;20027;-86
2023/08/29 15:06:04;;;;;;;8.73;3.55;;;21.90;99.90;;;;;;5113280;28;20516;-88
2023/08/29 15:08:30;;;;;;;8.15;3.90;;;21.90;99.90;;;;;;5113354;28;20027;-86
2023/08/29 15:10:57;;;;;;;9.25;5.15;;;21.90;99.90;;;;;;5112717;28;20027;-86
2023/08/29 15:13:27;;;;;;;8.93;4.63;;;22.10;99.90;;;;;;5113077;28;20122;-86
2023/08/29 15:15:57;;;;;;;9.57;4.55;;;22.30;99.90;;;;;;5113040;28;20077;-84
2023/08/29 15:18:23;;;;;;;9.43;4.53;;;22.60;99.90;;;;;;5112636;28;20023;-85
2023/08/29 15:20:49;;;;;;;9.65;4.72;;;22.80;99.90;;;;;;5113119;28;20034;-86
2023/08/29 15:23:15;;;;;;;11.98;5.30;;;22.90;99.90;;;;;;5112924;28;20035;-86
2023/08/29 15:25:42;;;;;;;10.63;5.40;;;23.00;99.90;;;;;;5128817;28;20431;-87
2023/08/29 15:28:08;;;;;;;12.65;7.15;;;23.50;99.90;;;;;;5112589;28;20049;-86
2023/08/29 22:43:13;;;;;;;27.33;13.15;;;20.50;99.90;;;;;;5123302;27;20737;-89
2023/08/29 22:45:39;;;;;;;25.92;13.98;;;20.40;99.90;;;;;;5080788;28;20024;-88
2023/08/29 22:48:05;;;;;;;25.05;12.63;;;20.40;99.90;;;;;;5077472;28;20039;-88
2023/08/29 22:50:31;;;;;;;26.85;13.30;;;20.40;99.90;;;;;;5071403;28;20025;-89
2023/08/29 22:52:57;;;;;;;28.45;14.35;;;20.40;99.90;;;;;;5078151;28;20073;-88
2023/08/29 22:55:23;;;;;;;26.90;15.02;;;20.40;99.90;;;;;;5084672;28;20029;-87
2023/08/29 22:57:50;;;;;;;27.45;13.23;;;20.40;99.90;;;;;;5073558;28;20028;-87
2023/08/29 23:00:16;;;;;;;28.30;14.35;;;20.40;99.90;;;;;;5054533;28;20513;-88
2023/08/29 23:02:42;;;;;;;25.48;12.90;;;20.40;99.90;;;;;;5086400;28;20119;-88
2023/08/29 23:05:08;;;;;;;25.00;14.55;;;20.50;99.90;;;;;;5077989;28;20084;-87
2023/08/29 23:07:34;;;;;;;45.67;15.93;;;20.40;99.90;;;;;;5068663;28;20020;-88
2023/08/29 23:09:59;;;;;;;28.13;14.02;;;20.50;99.90;;;;;;5068705;28;20111;-86
2023/08/29 23:12:25;;;;;;;28.15;13.88;;;20.50;99.90;;;;;;5068804;28;20585;-87
2023/08/29 23:14:51;;;;;;;31.05;15.38;;;20.40;99.90;;;;;;5068127;28;20025;-87
2023/08/29 23:17:17;;;;;;;22.15;13.40;;;20.40;99.90;;;;;;5068764;28;20028;-86
2023/08/29 23:19:45;;;;;;;28.83;14.63;;;20.30;99.90;;;;;;5068587;28;20025;-88
2023/08/29 23:22:11;;;;;;;25.40;14.52;;;20.30;99.90;;;;;;5068260;28;20033;-88
2023/08/29 23:24:37;;;;;;;24.85;14.05;;;20.30;99.90;;;;;;5068598;28;20028;-87
2023/08/29 23:27:03;;;;;;;27.60;14.65;;;20.30;99.90;;;;;;5069850;28;20386;-88
2023/08/29 23:29:38;;;;;;;29.20;14.52;;;20.30;99.90;;;;;;5078128;28;20352;-87
2023/08/29 23:32:04;;;;;;;27.55;13.98;;;20.30;99.90;;;;;;5068764;28;20126;-88
2023/08/29 23:34:31;;;;;;;29.30;14.05;;;20.30;99.90;;;;;;5083928;28;20035;-87
2023/08/29 23:36:57;;;;;;;25.83;14.00;;;20.30;99.90;;;;;;5073292;28;20042;-87
2023/08/29 23:39:22;;;;;;;26.40;13.25;;;20.30;99.90;;;;;;5078146;28;20435;-88
2023/08/29 23:41:48;;;;;;;27.05;13.68;;;20.30;99.90;;;;;;5073334;28;20516;-88
2023/08/29 23:44:16;;;;;;;27.92;14.38;;;20.30;99.90;;;;;;5068285;28;20025;-88
2023/08/29 23:46:42;;;;;;;29.40;13.40;;;20.20;99.90;;;;;;5092438;28;20027;-87
2023/08/29 23:49:07;;;;;;;28.52;14.05;;;20.20;99.90;;;;;;5087732;28;20032;-86
2023/08/29 23:51:33;;;;;;;26.10;13.55;;;20.20;99.90;;;;;;5086636;28;20024;-86
2023/08/29 23:53:59;;;;;;;23.05;12.43;;;20.20;99.90;;;;;;5061207;28;20027;-87
2023/08/29 23:56:25;;;;;;;23.88;12.90;;;20.10;99.90;;;;;;5057608;28;20016;-86
2023/08/29 23:58:50;;;;;;;23.90;13.07;;;20.20;99.90;;;;;;5063393;28;20031;-87
